Time,TemperatureF,DewpointF,PressureIn,WindDirection,WindDirectionDegrees,WindSpeedMPH,WindSpeedGustMPH,Humidity,HourlyPrecipIn,Conditions,Clouds,dailyrainin,SolarRadiationWatts/m^2,SoftwareType,DateUTC
2013-02-04 00:11:00,55.0,52.0,-100.00,SE,137,0.0,2.0,88,0.00,,,0.01,0.000000,,2013-02-04 07:11:00,
2013-02-04 00:21:00,55.0,52.0,-100.00,SE,137,0.0,2.0,88,0.00,,,0.01,0.000000,,2013-02-04 07:21:00,
2013-02-04 00:32:00,55.0,52.0,-100.00,SE,137,0.0,2.0,88,0.00,,,0.01,0.000000,,2013-02-04 07:32:00,
2013-02-04 00:42:00,55.0,52.0,-100.00,SE,137,0.0,2.0,88,0.00,,,0.01,0.000000,,2013-02-04 07:42:00,
2013-02-04 00:51:00,55.0,52.0,-100.00,SE,137,0.0,2.0,88,0.00,,,0.01,0.000000,,2013-02-04 07:51:00,
2013-02-04 01:21:00,55.0,52.0,-100.00,SE,144,2.0,4.0,91,0.00,,,0.01,0.000000,,2013-02-04 08:21:00,
2013-02-04 01:31:00,55.0,52.0,-100.00,SE,144,2.0,4.0,91,0.00,,,0.01,0.000000,,2013-02-04 08:31:00,
2013-02-04 01:42:00,55.0,52.0,-100.00,SE,144,2.0,4.0,91,0.00,,,0.01,0.000000,,2013-02-04 08:42:00,
2013-02-04 01:52:00,55.0,52.0,-100.00,SE,144,2.0,4.0,91,0.00,,,0.01,0.000000,,2013-02-04 08:52:00,
2013-02-04 02:21:00,56.0,52.0,-100.00,SE,135,3.0,5.0,87,0.00,,,0.01,0.000000,,2013-02-04 09:21:00,
2013-02-04 02:32:00,56.0,52.0,-100.00,SE,135,3.0,5.0,87,0.00,,,0.01,0.000000,,2013-02-04 09:32:00,
2013-02-04 02:42:00,56.0,52.0,-100.00,SE,135,3.0,5.0,87,0.00,,,0.01,0.000000,,2013-02-04 09:42:00,
2013-02-04 02:51:00,56.0,52.0,-100.00,SE,135,3.0,5.0,87,0.00,,,0.01,0.000000,,2013-02-04 09:51:00,
2013-02-04 03:11:00,55.0,51.0,-100.00,SSE,159,1.0,6.0,86,0.00,,,0.01,0.000000,,2013-02-04 10:11:00,
2013-02-04 03:21:00,55.0,51.0,-100.00,SSE,159,1.0,6.0,86,0.00,,,0.01,0.000000,,2013-02-04 10:21:00,
2013-02-04 03:32:00,55.0,51.0,-100.00,SSE,159,1.0,6.0,86,0.00,,,0.01,0.000000,,2013-02-04 10:32:00,
2013-02-04 03:41:00,55.0,51.0,-100.00,SSE,159,1.0,6.0,86,0.00,,,0.01,0.000000,,2013-02-04 10:41:00,
2013-02-04 03:51:00,55.0,51.0,-100.00,SSE,159,1.0,6.0,86,0.00,,,0.01,0.000000,,2013-02-04 10:51:00,
2013-02-04 04:11:00,55.0,51.0,-100.00,ESE,117,3.0,5.0,87,0.00,,,0.01,0.000000,,2013-02-04 11:11:00,
2013-02-04 04:22:00,55.0,51.0,-100.00,ESE,117,3.0,5.0,87,0.00,,,0.01,0.000000,,2013-02-04 11:22:00,
2013-02-04 04:32:00,55.0,51.0,-100.00,ESE,117,3.0,5.0,87,0.00,,,0.01,0.000000,,2013-02-04 11:32:00,
2013-02-04 04:42:00,55.0,51.0,-100.00,ESE,117,3.0,5.0,87,0.00,,,0.01,0.000000,,2013-02-04 11:42:00,
2013-02-04 04:52:00,55.0,51.0,-100.00,ESE,117,3.0,5.0,87,0.00,,,0.01,0.000000,,2013-02-04 11:52:00,
2013-02-04 05:12:00,55.0,52.0,-100.00,ESE,115,2.0,5.0,90,0.00,,,0.01,0.000000,,2013-02-04 12:12:00,
2013-02-04 05:22:00,55.0,52.0,-100.00,ESE,115,2.0,5.0,90,0.00,,,0.01,0.000000,,2013-02-04 12:22:00,
2013-02-04 05:32:00,55.0,52.0,-100.00,ESE,115,2.0,5.0,90,0.00,,,0.01,0.000000,,2013-02-04 12:32:00,
2013-02-04 05:42:00,55.0,52.0,-100.00,ESE,115,2.0,5.0,90,0.00,,,0.01,0.000000,,2013-02-04 12:42:00,
2013-02-04 05:52:00,55.0,52.0,-100.00,ESE,115,2.0,5.0,90,0.00,,,0.01,0.000000,,2013-02-04 12:52:00,
2013-02-04 06:12:00,56.0,52.0,-100.00,SE,125,4.0,7.0,86,0.00,,,0.00,0.000000,,2013-02-04 13:12:00,
2013-02-04 06:21:00,56.0,52.0,-100.00,SE,125,4.0,7.0,86,0.00,,,0.00,0.000000,,2013-02-04 13:21:00,
2013-02-04 06:33:00,56.0,52.0,-100.00,SE,125,4.0,7.0,86,0.00,,,0.00,0.000000,,2013-02-04 13:33:00,
2013-02-04 06:42:00,56.0,52.0,-100.00,SE,125,4.0,7.0,86,0.00,,,0.00,0.000000,,2013-02-04 13:42:00,
2013-02-04 06:51:00,56.0,52.0,-100.00,SE,125,4.0,7.0,86,0.00,,,0.00,0.000000,,2013-02-04 13:51:00,
2013-02-04 07:22:00,57.0,53.0,-100.00,ESE,118,4.0,6.0,86,0.00,,,0.00,19.000000,,2013-02-04 14:22:00,
2013-02-04 07:32:00,57.0,53.0,-100.00,ESE,118,4.0,6.0,86,0.00,,,0.00,19.000000,,2013-02-04 14:32:00,
2013-02-04 07:42:00,57.0,53.0,-100.00,ESE,118,4.0,6.0,86,0.00,,,0.00,19.000000,,2013-02-04 14:42:00,
2013-02-04 07:52:00,57.0,53.0,-100.00,ESE,118,4.0,6.0,86,0.00,,,0.00,19.000000,,2013-02-04 14:52:00,
2013-02-04 08:12:00,59.0,55.0,-100.00,SE,131,4.0,7.0,87,0.00,,,0.00,77.000000,,2013-02-04 15:12:00,
2013-02-04 08:23:00,59.0,55.0,-100.00,SE,131,4.0,7.0,87,0.00,,,0.00,77.000000,,2013-02-04 15:23:00,
2013-02-04 08:33:00,59.0,55.0,-100.00,SE,131,4.0,7.0,87,0.00,,,0.00,77.000000,,2013-02-04 15:33:00,
2013-02-04 08:43:00,59.0,55.0,-100.00,SE,131,4.0,7.0,87,0.00,,,0.00,77.000000,,2013-02-04 15:43:00,
2013-02-04 08:52:00,59.0,55.0,-100.00,SE,131,4.0,7.0,87,0.00,,,0.00,77.000000,,2013-02-04 15:52:00,
2013-02-04 11:11:00,67.0,56.0,-100.00,SSE,151,8.0,13.0,69,-99.99,,,0.00,339.000000,,2013-02-04 18:11:00,
2013-02-04 11:22:00,67.0,56.0,-100.00,SSE,151,8.0,13.0,69,-99.99,,,0.00,339.000000,,2013-02-04 18:22:00,
2013-02-04 11:32:00,67.0,56.0,-100.00,SSE,151,8.0,13.0,69,-99.99,,,0.00,339.000000,,2013-02-04 18:32:00,
2013-02-04 11:42:00,67.0,56.0,-100.00,SSE,151,8.0,13.0,69,-99.99,,,0.00,339.000000,,2013-02-04 18:42:00,
2013-02-04 11:52:00,67.0,56.0,-100.00,SSE,151,8.0,13.0,69,-99.99,,,0.00,339.000000,,2013-02-04 18:52:00,
2013-02-04 12:22:00,67.0,56.0,-100.00,SE,125,7.0,12.0,67,0.00,,,0.00,227.000000,,2013-02-04 19:22:00,
2013-02-04 12:32:00,67.0,56.0,-100.00,SE,125,7.0,12.0,67,0.00,,,0.00,227.000000,,2013-02-04 19:32:00,
2013-02-04 12:42:00,67.0,56.0,-100.00,SE,125,7.0,12.0,67,0.00,,,0.00,227.000000,,2013-02-04 19:42:00,
2013-02-04 12:51:00,67.0,56.0,-100.00,SE,125,7.0,12.0,67,0.00,,,0.00,227.000000,,2013-02-04 19:51:00,
2013-02-04 13:12:00,66.0,56.0,-100.00,ESE,106,5.0,11.0,70,0.00,,,0.00,121.000000,,2013-02-04 20:12:00,
2013-02-04 13:22:00,66.0,56.0,-100.00,ESE,106,5.0,11.0,70,0.00,,,0.00,121.000000,,2013-02-04 20:22:00,
2013-02-04 13:32:00,66.0,56.0,-100.00,ESE,106,5.0,11.0,70,0.00,,,0.00,121.000000,,2013-02-04 20:32:00,
2013-02-04 13:42:00,66.0,56.0,-100.00,ESE,106,5.0,11.0,70,0.00,,,0.00,121.000000,,2013-02-04 20:42:00,
2013-02-04 13:52:00,66.0,56.0,-100.00,ESE,106,5.0,11.0,70,0.00,,,0.00,121.000000,,2013-02-04 20:52:00,
2013-02-04 14:11:00,66.0,56.0,-100.00,ESE,121,11.0,15.0,71,0.00,,,0.00,222.000000,,2013-02-04 21:11:00,
2013-02-04 14:22:00,66.0,56.0,-100.00,ESE,121,11.0,15.0,71,0.00,,,0.00,222.000000,,2013-02-04 21:22:00,
2013-02-04 14:32:00,66.0,56.0,-100.00,ESE,121,11.0,15.0,71,0.00,,,0.00,222.000000,,2013-02-04 21:32:00,
2013-02-04 14:42:00,66.0,56.0,-100.00,ESE,121,11.0,15.0,71,0.00,,,0.00,222.000000,,2013-02-04 21:42:00,
2013-02-04 14:51:00,66.0,56.0,-100.00,ESE,121,11.0,15.0,71,0.00,,,0.00,222.000000,,2013-02-04 21:51:00,
2013-02-04 15:12:00,66.0,56.0,-100.00,ESE,112,8.0,12.0,70,0.00,,,0.00,225.000000,,2013-02-04 22:12:00,
2013-02-04 15:21:00,66.0,56.0,-100.00,ESE,112,8.0,12.0,70,0.00,,,0.00,225.000000,,2013-02-04 22:21:00,
2013-02-04 15:32:00,66.0,56.0,-100.00,ESE,112,8.0,12.0,70,0.00,,,0.00,225.000000,,2013-02-04 22:32:00,
2013-02-04 15:42:00,66.0,56.0,-100.00,ESE,112,8.0,12.0,70,0.00,,,0.00,225.000000,,2013-02-04 22:42:00,
2013-02-04 15:51:00,66.0,56.0,-100.00,ESE,112,8.0,12.0,70,0.00,,,0.00,225.000000,,2013-02-04 22:51:00,
2013-02-04 16:21:00,66.0,58.0,-100.00,ESE,117,8.0,13.0,75,0.00,,,0.00,110.000000,,2013-02-04 23:21:00,
2013-02-04 16:32:00,66.0,58.0,-100.00,ESE,117,8.0,13.0,75,0.00,,,0.00,110.000000,,2013-02-04 23:32:00,
2013-02-04 16:42:00,66.0,58.0,-100.00,ESE,117,8.0,13.0,75,0.00,,,0.00,110.000000,,2013-02-04 23:42:00,
2013-02-04 16:52:00,66.0,58.0,-100.00,ESE,117,8.0,13.0,75,0.00,,,0.00,110.000000,,2013-02-04 23:52:00,
2013-02-04 17:22:00,64.0,58.0,-100.00,ESE,111,6.0,13.0,80,0.00,,,0.00,31.000000,,2013-02-05 00:22:00,
2013-02-04 17:32:00,64.0,58.0,-100.00,ESE,111,6.0,13.0,80,0.00,,,0.00,31.000000,,2013-02-05 00:32:00,
2013-02-04 17:42:00,64.0,58.0,-100.00,ESE,111,6.0,13.0,80,0.00,,,0.00,31.000000,,2013-02-05 00:42:00,
2013-02-04 17:51:00,64.0,58.0,-100.00,ESE,111,6.0,13.0,80,0.00,,,0.00,31.000000,,2013-02-05 00:51:00,
2013-02-04 18:11:00,63.0,59.0,-100.00,ESE,123,6.0,10.0,87,0.00,,,0.00,0.000000,,2013-02-05 01:11:00,
2013-02-04 18:22:00,63.0,59.0,-100.00,ESE,123,6.0,10.0,87,0.00,,,0.00,0.000000,,2013-02-05 01:22:00,
2013-02-04 18:32:00,63.0,59.0,-100.00,ESE,123,6.0,10.0,87,0.00,,,0.00,0.000000,,2013-02-05 01:32:00,
2013-02-04 18:42:00,63.0,59.0,-100.00,ESE,123,6.0,10.0,87,0.00,,,0.00,0.000000,,2013-02-05 01:42:00,
2013-02-04 18:51:00,63.0,59.0,-100.00,ESE,123,6.0,10.0,87,0.00,,,0.00,0.000000,,2013-02-05 01:51:00,
2013-02-04 19:22:00,63.0,60.0,-100.00,ESE,119,7.0,9.0,91,0.00,,,0.00,0.000000,,2013-02-05 02:22:00,
2013-02-04 19:32:00,63.0,60.0,-100.00,ESE,119,7.0,9.0,91,0.00,,,0.00,0.000000,,2013-02-05 02:32:00,
2013-02-04 19:42:00,63.0,60.0,-100.00,ESE,119,7.0,9.0,91,0.00,,,0.00,0.000000,,2013-02-05 02:42:00,
2013-02-04 19:52:00,63.0,60.0,-100.00,ESE,119,7.0,9.0,91,0.00,,,0.00,0.000000,,2013-02-05 02:52:00,
2013-02-04 20:21:00,63.0,61.0,-100.00,ESE,115,6.0,10.0,92,0.00,,,0.00,0.000000,,2013-02-05 03:21:00,
2013-02-04 20:32:00,63.0,61.0,-100.00,ESE,115,6.0,10.0,92,0.00,,,0.00,0.000000,,2013-02-05 03:32:00,
2013-02-04 20:42:00,63.0,61.0,-100.00,ESE,115,6.0,10.0,92,0.00,,,0.00,0.000000,,2013-02-05 03:42:00,
2013-02-04 20:51:00,63.0,61.0,-100.00,ESE,115,6.0,10.0,92,0.00,,,0.00,0.000000,,2013-02-05 03:51:00,
2013-02-04 21:11:00,62.0,60.0,-100.00,ESE,121,7.0,10.0,93,0.00,,,0.00,0.000000,,2013-02-05 04:11:00,
2013-02-04 21:21:00,62.0,60.0,-100.00,ESE,121,7.0,10.0,93,0.00,,,0.00,0.000000,,2013-02-05 04:21:00,
2013-02-04 21:32:00,62.0,60.0,-100.00,ESE,121,7.0,10.0,93,0.00,,,0.00,0.000000,,2013-02-05 04:32:00,
2013-02-04 21:42:00,62.0,60.0,-100.00,ESE,121,7.0,10.0,93,0.00,,,0.00,0.000000,,2013-02-05 04:42:00,
2013-02-04 21:52:00,62.0,60.0,-100.00,ESE,121,7.0,10.0,93,0.00,,,0.00,0.000000,,2013-02-05 04:52:00,
2013-02-04 22:11:00,61.0,60.0,-100.00,ESE,119,5.0,11.0,95,0.00,,,0.00,0.000000,,2013-02-05 05:11:00,
2013-02-04 22:22:00,61.0,60.0,-100.00,ESE,119,5.0,11.0,95,0.00,,,0.00,0.000000,,2013-02-05 05:22:00,
2013-02-04 22:32:00,61.0,60.0,-100.00,ESE,119,5.0,11.0,95,0.00,,,0.00,0.000000,,2013-02-05 05:32:00,
2013-02-04 22:42:00,61.0,60.0,-100.00,ESE,119,5.0,11.0,95,0.00,,,0.00,0.000000,,2013-02-05 05:42:00,
2013-02-04 22:52:00,61.0,60.0,-100.00,ESE,119,5.0,11.0,95,0.00,,,0.00,0.000000,,2013-02-05 05:52:00,
2013-02-04 23:21:00,60.0,59.0,-100.00,ESE,120,6.0,9.0,95,0.00,,,0.00,0.000000,,2013-02-05 06:21:00,
2013-02-04 23:32:00,60.0,59.0,-100.00,ESE,120,6.0,9.0,95,0.00,,,0.00,0.000000,,2013-02-05 06:32:00,
2013-02-04 23:42:00,60.0,59.0,-100.00,ESE,120,6.0,9.0,95,0.00,,,0.00,0.000000,,2013-02-05 06:42:00,
2013-02-04 23:51:00,60.0,59.0,-100.00,ESE,120,6.0,9.0,95,0.00,,,0.00,0.000000,,2013-02-05 06:51:00,